Time;durP1;ratioP1;P1;durP2;ratioP2;P2;SDS_P1;SDS_P2;PMS_P1;PMS_P2;Temp;Humidity;BMP_temperature;BMP_pressure;BME280_temperature;BME280_humidity;BME280_pressure;Samples;Min_cycle;Max_cycle;Signal;HPM_P1;HPM_P2
2022/09/28 00:03:51;;;;;;;6.17;3.77;;;;;;;9.52;100.00;98572.56;2843826;82;21009;-87
2022/09/28 00:07:54;;;;;;;6.70;4.17;;;;;;;9.55;100.00;98565.61;2844433;83;21625;-87
2022/09/28 00:11:56;;;;;;;4.97;4.42;;;;;;;9.53;100.00;98562.28;2843806;82;21084;-87
2022/09/28 00:16:08;;;;;;;6.80;3.90;;;;;;;9.50;100.00;98554.65;2764040;83;21018;-87
2022/09/28 00:20:10;;;;;;;6.87;3.98;;;;;;;9.50;100.00;98551.15;2819073;83;21088;-87
2022/09/28 00:24:17;;;;;;;7.80;3.87;;;;;;;9.55;100.00;98548.34;2786744;83;21572;-86
2022/09/28 00:28:19;;;;;;;8.40;3.37;;;;;;;9.60;100.00;98551.01;2843802;83;21037;-87
2022/09/28 00:32:23;;;;;;;2.98;2.77;;;;;;;9.61;100.00;98549.53;2843610;83;21049;-86
2022/09/28 00:36:25;;;;;;;5.30;3.02;;;;;;;9.68;100.00;98548.39;2843934;83;21033;-87
2022/09/28 00:40:27;;;;;;;5.33;3.27;;;;;;;9.73;100.00;98540.76;2844083;83;21033;-87
2022/09/28 00:44:45;;;;;;;6.00;3.42;;;;;;;9.81;100.00;98538.62;2843931;82;21053;-86
2022/09/28 00:48:57;;;;;;;5.70;3.40;;;;;;;9.84;100.00;98535.14;2843952;82;21085;-87
2022/09/28 00:53:18;;;;;;;7.55;3.05;;;;;;;9.91;100.00;98537.13;2843845;82;21055;-87
2022/09/28 00:57:21;;;;;;;3.45;3.15;;;;;;;9.91;100.00;98530.49;2819090;83;21069;-87
2022/09/28 01:01:23;;;;;;;6.90;3.45;;;;;;;9.97;100.00;98525.36;2843413;82;21057;-87
2022/09/28 01:05:26;;;;;;;4.15;3.00;;;;;;;10.05;100.00;98521.87;2840519;82;21037;-87
2022/09/28 01:09:28;;;;;;;5.05;3.22;;;;;;;10.19;100.00;98523.52;2844839;82;21545;-87
2022/09/28 01:13:31;;;;;;;4.67;4.28;;;;;;;10.35;100.00;98518.71;2844230;82;21859;-87
2022/09/28 01:17:41;;;;;;;2.55;2.33;;;;;;;10.53;100.00;98518.53;2844133;83;21001;-87
2022/09/28 01:21:57;;;;;;;6.37;3.80;;;;;;;10.60;100.00;98526.67;2842396;83;21049;-87
2022/09/28 01:26:22;;;;;;;4.25;3.20;;;;;;;10.50;100.00;98525.52;2843806;83;21016;-87
2022/09/28 01:30:24;;;;;;;5.22;2.77;;;;;;;10.46;100.00;98522.87;2699741;88;21067;-87
2022/09/28 01:34:38;;;;;;;3.60;3.05;;;;;;;10.43;100.00;98520.05;2701533;88;21100;-87
2022/09/28 01:38:47;;;;;;;3.30;3.00;;;;;;;10.47;100.00;98512.58;2701074;88;21091;-88
2022/09/28 01:42:56;;;;;;;4.45;3.33;;;;;;;10.56;100.00;98516.86;2701688;86;21103;-88
2022/09/28 01:47:03;;;;;;;2.98;2.70;;;;;;;10.75;100.00;98513.50;2682122;87;21074;-87
2022/09/28 01:51:08;;;;;;;3.92;3.27;;;;;;;10.93;100.00;98507.97;2701665;86;21043;-87
2022/09/28 01:55:20;;;;;;;4.45;3.77;;;;;;;11.12;100.00;98512.88;2701591;88;21733;-87
2022/09/28 01:59:28;;;;;;;6.42;3.00;;;;;;;11.27;100.00;98501.48;2621292;88;21570;-87
2022/09/28 02:03:37;;;;;;;4.40;3.08;;;;;;;11.32;100.00;98502.30;2636675;86;21204;-87
2022/09/28 02:07:44;;;;;;;3.77;2.67;;;;;;;11.36;100.00;98503.11;2702852;87;21645;-87
2022/09/28 02:11:52;;;;;;;4.12;2.80;;;;;;;11.37;100.00;98502.11;2700950;86;21086;-87
2022/09/28 02:16:09;;;;;;;3.30;2.90;;;;;;;11.28;100.00;98501.32;2706152;86;22437;-87
2022/09/28 02:20:11;;;;;;;5.28;2.60;;;;;;;11.20;100.00;98493.39;2705199;86;21103;-87
2022/09/28 02:24:23;;;;;;;4.08;2.70;;;;;;;11.15;100.00;98493.06;2707783;87;21149;-87
2022/09/28 02:28:24;;;;;;;5.00;2.50;;;;;;;11.19;100.00;98493.03;2696533;86;21011;-87
2022/09/28 02:32:28;;;;;;;2.98;2.70;;;;;;;11.31;100.00;98491.33;2705899;86;21062;-87
2022/09/28 02:36:30;;;;;;;3.22;3.02;;;;;;;11.47;100.00;98491.73;2796382;83;21072;-87
2022/09/28 02:40:34;;;;;;;2.87;2.67;;;;;;;11.57;100.00;98489.16;2844232;83;21045;-87
2022/09/28 02:45:05;;;;;;;4.90;3.10;;;;;;;11.46;100.00;98491.40;2843924;83;21248;-87
2022/09/28 02:49:26;;;;;;;3.00;2.67;;;;;;;11.29;100.00;98479.52;2873067;82;21077;-87
2022/09/28 02:54:15;;;;;;;4.15;2.00;;;;;;;11.31;100.00;98486.00;2872957;81;21035;-87
2022/09/28 02:58:54;;;;;;;3.15;2.77;;;;;;;11.20;100.00;98497.88;2859668;82;21550;-87
2022/09/28 03:03:32;;;;;;;3.70;2.37;;;;;;;11.13;100.00;98492.41;2871876;81;21340;-87
2022/09/28 03:08:02;;;;;;;4.83;3.12;;;;;;;11.08;100.00;98490.78;2871674;82;21454;-88
2022/09/28 03:12:10;;;;;;;3.55;2.98;;;;;;;11.12;100.00;98488.09;2868643;81;21007;-88
2022/09/28 03:16:19;;;;;;;3.52;2.72;;;;;;;11.13;100.00;98481.28;2868597;82;21479;-88
2022/09/28 03:20:20;;;;;;;3.33;2.50;;;;;;;11.18;100.00;98478.07;2875703;81;21006;-88
2022/09/28 03:24:21;;;;;;;3.80;2.92;;;;;;;11.21;100.00;98473.76;2874378;81;21036;-88
2022/09/28 03:28:22;;;;;;;6.05;3.80;;;;;;;11.19;98.58;98477.06;2874331;82;21011;-91
2022/09/28 03:32:23;;;;;;;3.52;3.05;;;;;;;11.12;97.74;98469.47;2869220;82;21542;-91
2022/09/28 03:36:25;;;;;;;4.28;2.77;;;;;;;11.02;97.22;98478.17;2868161;81;20991;-91
2022/09/28 03:40:26;;;;;;;5.12;3.10;;;;;;;10.93;96.89;98478.71;2875655;82;21070;-90
2022/09/28 03:44:27;;;;;;;10.30;3.22;;;;;;;10.83;96.52;98482.39;2869987;82;21046;-91
2022/09/28 03:48:34;;;;;;;6.15;4.50;;;;;;;10.67;96.67;98481.95;2870456;81;20992;-92
2022/09/28 03:52:35;;;;;;;10.35;7.15;;;;;;;10.58;97.57;98488.27;2874081;81;21129;-91
2022/09/28 03:56:36;;;;;;;6.92;6.05;;;;;;;10.45;99.09;98484.00;2872022;81;21104;-89
2022/09/28 04:00:38;;;;;;;6.65;5.90;;;;;;;10.27;100.00;98477.03;2868362;81;21029;-92
2022/09/28 04:04:39;;;;;;;4.95;4.33;;;;;;;10.14;100.00;98474.89;2873232;81;21002;-91
2022/09/28 04:08:41;;;;;;;4.17;3.80;;;;;;;10.10;100.00;98472.20;2870351;81;21019;-91
2022/09/28 04:12:44;;;;;;;6.08;3.90;;;;;;;10.04;100.00;98468.42;2872740;82;21064;-90
2022/09/28 04:16:46;;;;;;;3.45;3.08;;;;;;;10.05;100.00;98462.59;2868564;82;21047;-90
2022/09/28 04:21:05;;;;;;;6.10;5.20;;;;;;;9.99;100.00;98472.05;2859914;82;21035;-90
2022/09/28 04:25:08;;;;;;;5.83;4.42;;;;;;;10.00;100.00;98473.23;2870180;81;21586;-92
2022/09/28 04:29:15;;;;;;;5.58;4.92;;;;;;;9.99;100.00;98466.25;2875717;81;21038;-90
2022/09/28 04:33:16;;;;;;;6.10;4.55;;;;;;;10.01;100.00;98464.74;2871071;81;21047;-90
2022/09/28 04:37:17;;;;;;;5.72;4.15;;;;;;;10.12;100.00;98467.07;2838585;82;21587;-90
2022/09/28 04:41:21;;;;;;;4.03;3.62;;;;;;;10.20;100.00;98463.58;2871772;82;22143;-91
2022/09/28 04:45:27;;;;;;;4.58;4.17;;;;;;;10.32;100.00;98464.05;2869791;81;21027;-90
2022/09/28 04:49:26;;;;;;;6.37;3.92;;;;;;;10.41;100.00;98465.72;2864299;82;21117;-90
2022/09/28 04:53:28;;;;;;;8.53;4.17;;;;;;;10.42;100.00;98468.73;2864096;82;21003;-91
2022/09/28 04:57:29;;;;;;;5.55;4.85;;;;;;;10.40;100.00;98470.70;2871158;82;21027;-91
2022/09/28 05:01:31;;;;;;;6.15;4.55;;;;;;;10.45;100.00;98470.72;2865799;82;21074;-89
2022/09/28 05:05:32;;;;;;;6.35;5.10;;;;;;;10.42;100.00;98462.57;2870340;82;21035;-90
2022/09/28 05:09:33;;;;;;;7.03;4.85;;;;;;;10.44;100.00;98460.57;2843612;82;21008;-91
2022/09/28 05:13:41;;;;;;;3.95;3.62;;;;;;;10.45;100.00;98465.40;2830191;82;21066;-90
2022/09/28 05:17:42;;;;;;;4.40;3.35;;;;;;;10.33;99.96;98460.39;2870339;82;21054;-91
2022/09/28 05:21:45;;;;;;;6.30;4.55;;;;;;;10.02;100.00;98458.43;2873240;82;21049;-90
2022/09/28 05:25:47;;;;;;;3.90;3.47;;;;;;;9.95;100.00;98456.13;2867874;82;21518;-91
2022/09/28 05:29:48;;;;;;;9.43;4.95;;;;;;;9.88;100.00;98451.16;2870253;82;21055;-90
2022/09/28 05:33:50;;;;;;;4.37;4.05;;;;;;;9.73;100.00;98454.47;2871322;82;21058;-90
2022/09/28 05:37:51;;;;;;;4.87;4.35;;;;;;;9.57;100.00;98455.30;2871260;82;21018;-90
2022/09/28 05:41:54;;;;;;;4.60;4.10;;;;;;;9.84;100.00;98451.50;2882935;80;21004;-90
2022/09/28 05:45:58;;;;;;;4.12;3.83;;;;;;;9.93;100.00;98454.98;2872377;82;21544;-90
2022/09/28 05:49:59;;;;;;;4.40;3.65;;;;;;;10.04;100.00;98451.64;2844597;83;21580;-90
2022/09/28 05:54:00;;;;;;;7.50;4.72;;;;;;;10.04;100.00;98451.64;2819369;83;21045;-90
2022/09/28 05:58:05;;;;;;;5.72;4.50;;;;;;;9.93;100.00;98451.00;2843359;83;21010;-91
2022/09/28 06:02:06;;;;;;;7.70;5.90;;;;;;;9.93;100.00;98458.97;2843526;82;21081;-91
2022/09/28 06:06:07;;;;;;;8.85;4.58;;;;;;;9.92;100.00;98461.26;2843749;82;21163;-91
2022/09/28 06:10:08;;;;;;;8.35;6.60;;;;;;;10.09;100.00;98459.44;2843357;83;21057;-91
2022/09/28 06:14:12;;;;;;;7.12;5.50;;;;;;;10.19;100.00;98469.05;2843440;83;21096;-90
2022/09/28 06:18:14;;;;;;;8.08;4.22;;;;;;;10.36;100.00;98470.69;2842392;83;21060;-91
2022/09/28 06:22:15;;;;;;;5.87;5.33;;;;;;;10.53;100.00;98462.70;2843439;83;21101;-90
2022/09/28 06:26:17;;;;;;;5.28;4.78;;;;;;;10.70;100.00;98468.31;2844027;82;21045;-90
2022/09/28 06:30:18;;;;;;;8.58;4.85;;;;;;;10.80;100.00;98457.95;2843831;83;21017;-91
2022/09/28 06:34:20;;;;;;;8.73;5.37;;;;;;;10.92;100.00;98453.92;2844416;83;21076;-91
2022/09/28 06:38:21;;;;;;;5.58;4.80;;;;;;;11.00;100.00;98444.59;2843518;83;21041;-91
2022/09/28 06:42:22;;;;;;;6.08;5.47;;;;;;;11.24;100.00;98428.16;2843633;82;21090;-91
2022/09/28 06:46:24;;;;;;;8.83;7.03;;;;;;;11.42;100.00;98411.08;2818545;83;23875;-91
2022/09/28 06:50:31;;;;;;;6.42;5.83;;;;;;;11.84;100.00;98407.08;2866316;82;21011;-91
2022/09/28 06:54:31;;;;;;;;;;;;;;;12.12;98.70;98407.83;2934603;79;21065;-91
2022/09/28 06:58:32;;;;;;;5.62;4.60;;;;;;;12.18;96.00;98394.78;2849416;82;20132;-91
2022/09/28 07:02:33;;;;;;;5.87;4.92;;;;;;;12.42;94.77;98402.53;2931962;79;21330;-91
2022/09/28 07:06:35;;;;;;;5.08;4.20;;;;;;;12.41;95.53;98403.55;2937446;80;21073;-90
2022/09/28 07:10:42;;;;;;;6.47;5.80;;;;;;;12.55;96.16;98406.37;2901906;81;21053;-90
2022/09/28 07:14:43;;;;;;;7.90;4.70;;;;;;;12.68;95.78;98409.73;2865635;82;21083;-91
2022/09/28 07:18:44;;;;;;;5.35;4.85;;;;;;;13.01;95.42;98414.63;2786595;82;21067;-91
2022/09/28 07:22:46;;;;;;;5.60;4.35;;;;;;;13.27;94.25;98413.30;2871296;82;21033;-91
2022/09/28 07:26:47;;;;;;;8.88;5.15;;;;;;;13.50;93.87;98412.31;2879640;81;21018;-91
2022/09/28 07:30:49;;;;;;;5.45;4.58;;;;;;;13.69;90.67;98410.83;2861750;81;21055;-91
2022/09/28 07:34:51;;;;;;;6.05;4.47;;;;;;;13.70;89.50;98399.13;2851130;82;21028;-91
2022/09/28 07:38:52;;;;;;;11.18;3.92;;;;;;;13.79;87.97;98403.33;2844865;82;21033;-91
2022/09/28 07:42:53;;;;;;;4.22;2.83;;;;;;;14.08;86.41;98399.33;2875188;81;21030;-90
2022/09/28 07:46:54;;;;;;;4.33;3.10;;;;;;;14.23;84.08;98392.00;2849334;81;21062;-90
2022/09/28 07:50:58;;;;;;;3.45;2.33;;;;;;;14.30;83.10;98393.91;2874310;82;21064;-91
2022/09/28 07:55:00;;;;;;;3.62;2.85;;;;;;;14.19;82.38;98392.61;2878189;82;21027;-91
2022/09/28 07:59:01;;;;;;;3.33;2.90;;;;;;;14.38;84.13;98396.41;2873325;81;21062;-91
2022/09/28 08:03:03;;;;;;;4.33;2.83;;;;;;;14.50;82.04;98388.66;2874278;82;21104;-91
2022/09/28 08:07:09;;;;;;;2.80;2.10;;;;;;;14.70;81.57;98385.56;2829792;82;21051;-91
2022/09/28 08:11:17;;;;;;;2.20;1.90;;;;;;;14.94;81.91;98389.29;2875746;81;21033;-91
2022/09/28 08:15:18;;;;;;;1.82;1.17;;;;;;;14.90;81.04;98383.50;2875016;82;21078;-91
2022/09/28 08:19:19;;;;;;;1.70;1.60;;;;;;;15.08;78.32;98380.78;2873335;81;21027;-91
2022/09/28 08:23:20;;;;;;;3.22;1.95;;;;;;;15.07;78.92;98377.80;2873599;82;21038;-90
2022/09/28 08:27:21;;;;;;;3.15;1.87;;;;;;;15.25;78.04;98370.54;2888884;82;21027;-91
2022/09/28 08:31:22;;;;;;;1.10;1.05;;;;;;;15.44;77.15;98363.55;2876082;82;21038;-91
2022/09/28 08:35:24;;;;;;;2.95;1.10;;;;;;;15.45;75.30;98362.52;2869902;82;21062;-91
2022/09/28 08:39:26;;;;;;;1.75;0.95;;;;;;;15.62;75.30;98367.47;2822337;82;21672;-91
2022/09/28 08:43:57;;;;;;;1.62;1.17;;;;;;;15.57;75.12;98374.78;2836602;80;21565;-91
2022/09/28 08:52:35;;;;;;;2.65;0.93;;;;;;;15.69;72.17;98372.31;2875705;82;21050;-91
2022/09/28 08:56:48;;;;;;;1.20;0.98;;;;;;;15.66;73.21;98360.66;2876251;82;21031;-91
2022/09/28 09:00:51;;;;;;;1.05;0.85;;;;;;;15.70;72.33;98364.58;2880380;81;21089;-91
2022/09/28 09:04:54;;;;;;;2.75;1.17;;;;;;;15.82;73.25;98360.75;2879498;82;21093;-91
2022/09/28 09:09:04;;;;;;;1.27;0.93;;;;;;;15.95;73.11;98359.44;2878720;82;21538;-91
2022/09/28 09:13:37;;;;;;;1.32;1.22;;;;;;;16.23;73.48;98351.67;2874166;81;21588;-91
2022/09/28 09:18:04;;;;;;;1.75;1.30;;;;;;;16.26;71.52;98348.56;2878669;82;21014;-91
2022/09/28 09:22:19;;;;;;;1.02;0.72;;;;;;;16.17;71.00;98350.34;2876732;81;21070;-91
2022/09/28 09:26:37;;;;;;;1.57;1.43;;;;;;;15.98;70.15;98348.30;2878588;81;21066;-91
2022/09/28 09:31:10;;;;;;;3.12;1.40;;;;;;;15.83;71.77;98341.80;2880385;82;21047;-91
2022/09/28 09:35:36;;;;;;;1.22;1.12;;;;;;;15.69;72.06;98342.83;2872384;82;21066;-91
2022/09/28 09:39:54;;;;;;;3.12;1.70;;;;;;;15.59;73.52;98343.24;2883161;81;21066;-91
2022/09/28 09:44:24;;;;;;;1.45;1.35;;;;;;;15.45;70.46;98345.09;2876613;82;21043;-91
2022/09/28 09:48:39;;;;;;;4.62;2.00;;;;;;;15.62;71.57;98340.67;2878218;81;21047;-90
2022/09/28 09:52:53;;;;;;;3.10;1.30;;;;;;;15.53;70.33;98341.39;2871216;80;21094;-91
2022/09/28 09:57:00;;;;;;;1.42;1.30;;;;;;;15.53;70.52;98336.88;2871162;82;21073;-90
2022/09/28 10:01:10;;;;;;;2.05;1.82;;;;;;;15.39;71.21;98335.21;2872469;82;21692;-90
2022/09/28 10:05:19;;;;;;;2.60;1.40;;;;;;;15.17;71.75;98336.73;2866997;82;21653;-91
2022/09/28 10:09:28;;;;;;;2.02;1.40;;;;;;;15.06;73.59;98334.64;2874649;82;21051;-91
2022/09/28 10:13:31;;;;;;;3.15;1.35;;;;;;;14.86;73.58;98346.13;2881148;81;21041;-90
2022/09/28 10:17:35;;;;;;;2.10;1.40;;;;;;;14.82;74.57;98344.36;2856624;81;21053;-91
2022/09/28 10:21:39;;;;;;;3.70;2.05;;;;;;;14.92;76.21;98356.55;2847726;82;21016;-91
2022/09/28 10:25:44;;;;;;;1.35;1.25;;;;;;;15.09;76.30;98358.33;2876358;82;20987;-91
2022/09/28 10:29:53;;;;;;;2.25;1.60;;;;;;;15.15;75.57;98352.19;2875803;82;21090;-91
2022/09/28 10:33:56;;;;;;;1.90;1.77;;;;;;;15.06;74.94;98354.72;2867369;82;21055;-91
2022/09/28 10:38:13;;;;;;;2.72;2.05;;;;;;;14.75;74.48;98362.78;2862487;81;21002;-91
2022/09/28 10:42:21;;;;;;;2.80;1.72;;;;;;;14.71;75.06;98361.82;2879451;81;21088;-90
2022/09/28 10:46:23;;;;;;;1.45;1.35;;;;;;;14.47;74.72;98363.14;2842242;81;21021;-91
2022/09/28 10:50:27;;;;;;;1.87;1.65;;;;;;;14.01;76.18;98371.20;2874957;81;21517;-91
2022/09/28 10:54:30;;;;;;;1.50;1.40;;;;;;;13.59;79.86;98384.97;2878231;82;21019;-91
2022/09/28 10:58:39;;;;;;;4.03;1.42;;;;;;;13.37;82.56;98384.95;2838357;82;21491;-90
2022/09/28 11:02:40;;;;;;;1.22;1.12;;;;;;;12.89;85.85;98383.61;2874116;81;21066;-91
2022/09/28 11:06:41;;;;;;;4.80;1.72;;;;;;;12.54;87.09;98390.05;2862250;82;20995;-91
2022/09/28 11:10:43;;;;;;;1.77;1.62;;;;;;;12.40;91.34;98396.55;2840807;82;21015;-91
2022/09/28 11:14:51;;;;;;;2.72;1.95;;;;;;;12.41;93.21;98390.70;2872949;81;21565;-90
2022/09/28 11:18:51;;;;;;;2.17;2.08;;;;;;;12.46;94.23;98400.82;2863389;82;21050;-90
2022/09/28 11:23:00;;;;;;;1.62;1.47;;;;;;;12.49;93.74;98378.63;2875004;81;21085;-91
2022/09/28 11:27:01;;;;;;;3.17;2.02;;;;;;;12.56;95.42;98380.02;2863698;81;21498;-90
2022/09/28 11:31:06;;;;;;;2.50;2.30;;;;;;;12.50;95.56;98385.61;2879113;81;21079;-90
2022/09/28 11:35:22;;;;;;;2.60;2.08;;;;;;;12.51;97.26;98390.42;2878444;81;21034;-91
2022/09/28 11:39:54;;;;;;;3.12;2.25;;;;;;;12.53;98.47;98388.39;2848482;82;21036;-90
2022/09/28 11:44:03;;;;;;;1.92;1.82;;;;;;;12.42;98.93;98390.53;2877278;81;21039;-90
2022/09/28 11:48:12;;;;;;;4.22;2.22;;;;;;;12.38;99.98;98383.92;2890823;81;21560;-90
2022/09/28 11:52:22;;;;;;;2.62;2.02;;;;;;;12.41;99.90;98380.03;2884286;82;21023;-90
2022/09/28 11:56:46;;;;;;;2.70;2.50;;;;;;;12.52;98.99;98370.74;2845983;81;21535;-91
2022/09/28 12:01:22;;;;;;;3.10;2.77;;;;;;;12.41;99.37;98364.88;2882689;81;21550;-90
2022/09/28 12:05:33;;;;;;;9.83;5.33;;;;;;;12.30;100.00;98368.00;2878201;80;21030;-90
2022/09/28 12:09:46;;;;;;;5.60;4.92;;;;;;;12.32;100.00;98349.97;2878095;81;21058;-90
2022/09/28 12:13:51;;;;;;;7.30;5.75;;;;;;;12.23;100.00;98345.77;2873528;82;21061;-90
2022/09/28 12:18:04;;;;;;;3.70;3.20;;;;;;;12.31;100.00;98332.33;2874546;82;21069;-90
2022/09/28 12:22:37;;;;;;;3.83;3.00;;;;;;;12.26;100.00;98324.87;2882519;81;21133;-90
2022/09/28 12:26:47;;;;;;;3.27;2.98;;;;;;;12.20;100.00;98321.63;2874225;82;21592;-90
2022/09/28 12:30:49;;;;;;;2.67;2.42;;;;;;;12.24;100.00;98312.24;2880109;82;21510;-91
2022/09/28 12:34:50;;;;;;;1.92;1.72;;;;;;;12.24;100.00;98311.44;2877785;81;21034;-90
2022/09/28 12:39:19;;;;;;;2.75;2.55;;;;;;;12.12;100.00;98309.22;2875919;80;21062;-90
2022/09/28 12:43:42;;;;;;;1.95;1.72;;;;;;;12.22;100.00;98310.27;2704891;86;21079;-90
2022/09/28 12:48:07;;;;;;;2.25;2.05;;;;;;;12.17;100.00;98303.84;2702141;86;21006;-90
2022/09/28 12:52:17;;;;;;;7.37;4.08;;;;;;;12.46;100.00;98312.30;2687770;86;21074;-90
2022/09/28 12:56:42;;;;;;;6.20;3.12;;;;;;;12.79;100.00;98301.72;2685373;87;21146;-91
2022/09/28 13:00:52;;;;;;;4.28;3.62;;;;;;;12.86;100.00;98298.08;2690541;87;21009;-90
2022/09/28 13:05:22;;;;;;;4.67;3.50;;;;;;;13.07;100.00;98292.95;2696469;87;21100;-90
2022/09/28 13:09:26;;;;;;;9.10;5.25;;;;;;;13.23;99.72;98299.86;2716448;86;21044;-90
2022/09/28 13:13:45;;;;;;;5.33;3.50;;;;;;;13.16;100.00;98305.14;2720784;86;21893;-89
2022/09/28 13:18:05;;;;;;;2.58;2.37;;;;;;;13.20;99.64;98290.41;2699535;86;21143;-90
2022/09/28 13:22:29;;;;;;;15.30;8.88;;;;;;;13.22;98.08;98293.72;2836807;82;21045;-90
2022/09/28 13:26:38;;;;;;;9.88;4.67;;;;;;;13.19;97.45;98300.78;2878754;81;21137;-90
2022/09/28 13:30:39;;;;;;;8.48;5.15;;;;;;;13.10;97.07;98291.23;2875183;81;21027;-89
2022/09/28 13:34:41;;;;;;;31.02;18.60;;;;;;;12.98;95.83;98294.92;2815991;82;21042;-90
2022/09/28 13:38:48;;;;;;;37.63;21.87;;;;;;;13.03;97.90;98289.83;2876687;82;21026;-90
2022/09/28 13:43:04;;;;;;;11.68;8.03;;;;;;;13.08;98.49;98300.78;2933329;80;21076;-90
2022/09/28 13:47:43;;;;;;;9.15;5.40;;;;;;;13.13;97.25;98298.85;2859757;81;21027;-90
2022/09/28 13:52:17;;;;;;;5.22;4.17;;;;;;;13.00;98.48;98307.07;2866070;82;21097;-91
2022/09/28 13:56:47;;;;;;;6.92;5.35;;;;;;;13.03;100.00;98301.03;2865965;82;21076;-89
2022/09/28 14:01:03;;;;;;;3.42;3.20;;;;;;;13.25;100.00;98301.34;2869770;82;21054;-89
2022/09/28 14:05:24;;;;;;;12.00;4.65;;;;;;;13.43;98.14;98295.55;2868673;82;21550;-90
2022/09/28 14:09:43;;;;;;;10.93;8.73;;;;;;;13.73;97.85;98287.04;2867604;82;21508;-90
2022/09/28 14:14:06;;;;;;;6.72;4.58;;;;;;;13.96;97.14;98290.79;2868363;80;21002;-90
2022/09/28 14:18:23;;;;;;;4.78;2.92;;;;;;;13.73;93.95;98287.84;2845115;81;21031;-90
2022/09/28 14:23:04;;;;;;;2.90;2.65;;;;;;;13.65;93.63;98275.99;2847268;82;21671;-90
2022/09/28 14:27:28;;;;;;;2.87;1.90;;;;;;;13.65;91.84;98278.66;2878599;82;21095;-90
2022/09/28 14:31:30;;;;;;;3.27;2.65;;;;;;;13.65;92.67;98278.66;2793787;83;21672;-90
2022/09/28 14:35:38;;;;;;;3.90;3.17;;;;;;;13.84;94.30;98275.79;2728062;83;21580;-90
2022/09/28 14:44:15;;;;;;;10.82;7.37;;;;;;;14.00;95.56;98269.31;2797601;83;21656;-91
2022/09/28 14:48:19;;;;;;;9.73;7.45;;;;;;;14.16;93.47;98272.16;2792868;83;21098;-89
2022/09/28 14:52:41;;;;;;;6.87;4.97;;;;;;;14.28;92.86;98268.41;2788383;83;21163;-90
2022/09/28 14:56:55;;;;;;;9.30;7.87;;;;;;;14.36;92.88;98262.91;2788031;83;21118;-90
2022/09/28 15:01:04;;;;;;;8.20;5.47;;;;;;;14.30;91.74;98272.23;2783652;83;21080;-90
2022/09/28 15:05:17;;;;;;;10.72;6.78;;;;;;;14.28;92.84;98274.59;2784042;83;21004;-89
2022/09/28 15:09:36;;;;;;;22.17;16.00;;;;;;;13.96;93.31;98273.41;2873600;81;21075;-88
2022/09/28 15:13:39;;;;;;;41.50;22.35;;;;;;;13.86;93.98;98288.47;2921016;80;21300;-90
2022/09/28 15:17:40;;;;;;;21.68;11.08;;;;;;;13.86;94.35;98284.46;2944041;80;21705;-86
2022/09/28 15:21:44;;;;;;;20.30;13.30;;;;;;;13.92;95.64;98274.81;2939113;80;21508;-87
2022/09/28 15:25:52;;;;;;;27.80;18.10;;;;;;;14.03;95.85;98281.45;2916723;80;21058;-88
2022/09/28 15:29:59;;;;;;;8.28;6.05;;;;;;;14.09;96.24;98278.00;2933995;80;21038;-88
2022/09/28 15:38:20;;;;;;;16.02;8.00;;;;;;;14.28;96.44;98297.33;2909547;80;21062;-88
2022/09/28 15:42:21;;;;;;;12.85;8.35;;;;;;;14.43;97.04;98299.01;2940953;80;21120;-89
2022/09/28 15:46:24;;;;;;;11.53;10.15;;;;;;;14.60;96.51;98307.53;2851149;82;21082;-88
2022/09/28 15:50:28;;;;;;;31.17;23.73;;;;;;;14.70;95.50;98303.94;2837378;82;21531;-89
2022/09/28 15:54:35;;;;;;;19.52;13.58;;;;;;;14.69;93.80;98303.63;2859990;82;21027;-88
2022/09/28 15:58:38;;;;;;;26.00;18.75;;;;;;;14.50;95.06;98308.41;2884123;82;21105;-88
2022/09/28 16:03:02;;;;;;;13.48;10.00;;;;;;;14.32;96.15;98315.11;2879652;82;21138;-88
2022/09/28 16:07:22;;;;;;;9.23;6.90;;;;;;;14.24;95.44;98325.46;2899867;80;21057;-88
2022/09/28 16:11:28;;;;;;;14.83;12.25;;;;;;;14.21;95.50;98319.70;2882476;82;21121;-88
2022/09/28 16:15:33;;;;;;;9.93;7.03;;;;;;;14.12;95.61;98325.20;2884495;81;21004;-88
2022/09/28 16:19:36;;;;;;;13.78;10.63;;;;;;;14.13;95.46;98328.19;2876371;81;21015;-88
2022/09/28 16:23:40;;;;;;;7.30;4.78;;;;;;;14.11;95.26;98334.23;2917658;80;21494;-88
2022/09/28 16:27:43;;;;;;;12.47;9.33;;;;;;;14.06;93.08;98339.89;2938993;80;21006;-88
2022/09/28 16:31:51;;;;;;;26.07;16.87;;;;;;;14.09;94.37;98337.63;2834663;82;21596;-89
2022/09/28 16:35:50;;;;;;;37.30;22.60;;;;;;;14.08;94.49;98341.85;2881494;80;21642;-88
2022/09/28 16:39:51;;;;;;;17.05;10.80;;;;;;;14.07;94.55;98346.88;2887680;81;21053;-88
2022/09/28 16:43:59;;;;;;;11.57;7.20;;;;;;;14.09;94.50;98347.51;2886166;82;21346;-89
2022/09/28 16:48:01;;;;;;;8.10;5.05;;;;;;;14.00;94.39;98349.51;2859693;82;21034;-88
2022/09/28 16:52:04;;;;;;;10.18;4.10;;;;;;;13.93;94.25;98352.63;2860574;82;21010;-89
2022/09/28 16:56:08;;;;;;;6.33;3.33;;;;;;;13.84;93.99;98366.15;2882066;82;20998;-88
2022/09/28 17:00:19;;;;;;;5.47;3.30;;;;;;;13.80;93.10;98366.23;2881922;81;21054;-88
2022/09/28 17:04:22;;;;;;;7.45;4.37;;;;;;;13.75;92.99;98369.97;2877019;82;21078;-89
2022/09/28 17:08:24;;;;;;;3.95;2.62;;;;;;;13.66;93.25;98373.81;2871831;82;21620;-89
2022/09/28 17:12:27;;;;;;;4.00;2.22;;;;;;;13.51;94.16;98384.06;2815663;83;21057;-88
2022/09/28 17:16:31;;;;;;;1.90;1.35;;;;;;;13.30;89.46;98384.87;2904649;80;21046;-88
2022/09/28 17:20:34;;;;;;;1.95;1.75;;;;;;;13.21;90.78;98393.52;2844481;81;21116;-88
2022/09/28 17:24:36;;;;;;;2.17;1.62;;;;;;;13.09;91.38;98406.53;2907351;80;21144;-88
2022/09/28 17:28:41;;;;;;;4.62;2.87;;;;;;;13.01;90.81;98413.30;2879039;81;21807;-88
2022/09/28 17:32:46;;;;;;;4.50;2.52;;;;;;;12.97;92.29;98427.55;2848727;81;21022;-88
2022/09/28 17:36:47;;;;;;;2.62;2.30;;;;;;;12.92;92.98;98427.26;2870555;82;21613;-89
2022/09/28 17:40:48;;;;;;;2.62;2.42;;;;;;;12.81;92.84;98435.23;2877638;81;21070;-89
2022/09/28 17:44:49;;;;;;;3.80;2.10;;;;;;;12.61;92.35;98446.15;2801160;81;21002;-90
2022/09/28 17:48:51;;;;;;;2.87;1.80;;;;;;;12.40;90.51;98444.55;2863658;82;21696;-88
2022/09/28 17:52:53;;;;;;;2.52;2.33;;;;;;;12.21;86.29;98449.08;2867010;82;21657;-89
2022/09/28 17:56:54;;;;;;;3.95;2.20;;;;;;;12.17;86.79;98458.42;2810587;83;21026;-89
2022/09/28 18:00:56;;;;;;;2.70;2.08;;;;;;;12.05;88.96;98468.20;2859976;81;21089;-88
2022/09/28 18:04:57;;;;;;;1.90;1.72;;;;;;;11.92;88.31;98467.45;2914398;80;21663;-89
2022/09/28 18:08:58;;;;;;;2.42;1.90;;;;;;;11.74;87.81;98477.06;2885655;80;21792;-89
2022/09/28 18:12:59;;;;;;;1.52;1.30;;;;;;;11.60;88.00;98471.20;2922362;80;22341;-89
2022/09/28 18:17:00;;;;;;;1.30;1.20;;;;;;;11.49;89.12;98478.58;2911551;80;21494;-89
2022/09/28 18:21:02;;;;;;;2.25;1.82;;;;;;;11.42;89.83;98488.28;2865678;81;21075;-88
2022/09/28 18:25:05;;;;;;;3.55;1.47;;;;;;;11.36;90.88;98491.63;2907674;80;21052;-89
2022/09/28 18:29:06;;;;;;;1.65;1.45;;;;;;;11.31;91.68;98495.32;2837229;81;21504;-90
2022/09/28 18:33:09;;;;;;;2.87;2.37;;;;;;;11.21;92.06;98493.72;2905086;80;21488;-91
2022/09/28 18:37:11;;;;;;;2.80;2.00;;;;;;;11.17;92.68;98499.55;2849328;82;21088;-90
2022/09/28 18:41:16;;;;;;;3.10;2.52;;;;;;;11.09;93.10;98503.89;2909415;80;20987;-91
2022/09/28 18:45:18;;;;;;;2.90;2.05;;;;;;;10.99;93.82;98498.78;2855669;81;20991;-88
2022/09/28 18:49:22;;;;;;;2.65;2.02;;;;;;;10.77;93.68;98507.02;2900382;81;21319;-90
2022/09/28 18:53:23;;;;;;;3.15;2.42;;;;;;;10.76;94.35;98511.17;2851437;82;21052;-90
2022/09/28 18:57:26;;;;;;;3.67;2.30;;;;;;;10.73;94.83;98520.33;2883208;81;21062;-91
2022/09/28 19:01:27;;;;;;;4.72;2.67;;;;;;;10.74;94.76;98519.81;2884067;82;21051;-88
2022/09/28 19:05:28;;;;;;;3.52;3.22;;;;;;;10.71;94.94;98518.34;2871571;82;21074;-88
2022/09/28 19:09:29;;;;;;;3.47;2.72;;;;;;;10.65;95.12;98523.84;2848263;82;21097;-89
2022/09/28 19:13:30;;;;;;;3.70;3.00;;;;;;;10.67;94.80;98529.81;2872390;82;21066;-88
2022/09/28 19:17:32;;;;;;;4.58;3.35;;;;;;;10.66;94.62;98533.47;2876193;82;21070;-89
2022/09/28 19:21:34;;;;;;;7.03;4.35;;;;;;;10.61;94.72;98540.30;2838234;82;21030;-88
2022/09/28 19:25:39;;;;;;;7.10;4.72;;;;;;;10.56;94.99;98540.79;2818148;82;21030;-88
2022/09/28 19:29:38;;;;;;;5.85;5.22;;;;;;;10.47;95.10;98540.48;2870530;81;21057;-87
2022/09/28 19:33:40;;;;;;;8.78;4.58;;;;;;;10.47;94.98;98545.28;2824677;82;21074;-86